sensor_id;sensor_type;location;lat;lon;timestamp;pressure;altitude;pressure_sealevel;temperature;humidity
10921;BME280;5513;50.580;8.818;2023-05-02T11:00:24;99603.69;;;16.42;100.00
10921;BME280;5513;50.580;8.818;2023-05-02T11:02:52;99607.06;;;16.55;100.00
10921;BME280;5513;50.580;8.818;2023-05-02T11:05:22;99607.44;;;16.62;93.88
10921;BME280;5513;50.580;8.818;2023-05-02T11:08:29;99606.19;;;16.77;93.90
10921;BME280;5513;50.580;8.818;2023-05-02T11:14:09;99612.66;;;16.75;93.49
10921;BME280;5513;50.580;8.818;2023-05-02T11:17:07;99609.78;;;16.99;88.16
10921;BME280;5513;50.580;8.818;2023-05-02T11:22:59;99606.34;;;16.53;94.06
10921;BME280;5513;50.580;8.818;2023-05-02T11:25:54;99610.22;;;16.49;98.85
10921;BME280;5513;50.580;8.818;2023-05-02T11:28:39;99608.84;;;16.77;99.60
10921;BME280;5513;50.580;8.818;2023-05-02T11:31:09;99607.81;;;17.01;99.92
10921;BME280;5513;50.580;8.818;2023-05-02T11:34:02;99618.84;;;17.07;89.69
10921;BME280;5513;50.580;8.818;2023-05-02T11:36:31;99615.50;;;17.89;88.69
10921;BME280;5513;50.580;8.818;2023-05-02T11:39:00;99604.66;;;18.30;87.28
10921;BME280;5513;50.580;8.818;2023-05-02T11:41:39;99605.84;;;17.77;90.49
10921;BME280;5513;50.580;8.818;2023-05-02T11:44:07;99590.94;;;17.93;92.88
10921;BME280;5513;50.580;8.818;2023-05-02T11:46:36;99612.44;;;17.72;88.67
10921;BME280;5513;50.580;8.818;2023-05-02T11:49:06;99611.78;;;17.38;97.84
10921;BME280;5513;50.580;8.818;2023-05-02T11:51:37;99612.47;;;17.61;92.63
10921;BME280;5513;50.580;8.818;2023-05-02T11:54:06;99612.88;;;17.57;93.57
10921;BME280;5513;50.580;8.818;2023-05-02T11:56:35;99621.03;;;17.55;94.33
10921;BME280;5513;50.580;8.818;2023-05-02T11:59:04;99618.41;;;17.23;96.04
10921;BME280;5513;50.580;8.818;2023-05-02T12:01:34;99620.59;;;16.43;100.00
10921;BME280;5513;50.580;8.818;2023-05-02T12:04:03;99629.00;;;16.27;100.00
10921;BME280;5513;50.580;8.818;2023-05-02T12:06:34;99639.19;;;15.88;100.00
10921;BME280;5513;50.580;8.818;2023-05-02T12:09:07;99657.59;;;15.34;100.00
10921;BME280;5513;50.580;8.818;2023-05-02T12:11:35;99670.22;;;14.60;100.00
10921;BME280;5513;50.580;8.818;2023-05-02T12:14:05;99667.03;;;14.17;100.00
10921;BME280;5513;50.580;8.818;2023-05-02T12:16:34;99665.03;;;14.08;100.00
10921;BME280;5513;50.580;8.818;2023-05-02T12:19:03;99675.56;;;14.22;100.00
10921;BME280;5513;50.580;8.818;2023-05-02T12:21:34;99669.06;;;14.39;100.00
10921;BME280;5513;50.580;8.818;2023-05-02T12:24:02;99665.28;;;14.91;100.00
10921;BME280;5513;50.580;8.818;2023-05-02T12:26:31;99665.53;;;15.46;100.00
10921;BME280;5513;50.580;8.818;2023-05-02T12:29:00;99666.84;;;15.76;100.00
10921;BME280;5513;50.580;8.818;2023-05-02T12:31:28;99659.44;;;16.58;100.00
10921;BME280;5513;50.580;8.818;2023-05-02T12:33:58;99658.53;;;17.02;100.00
10921;BME280;5513;50.580;8.818;2023-05-02T12:36:27;99660.94;;;17.69;100.00
10921;BME280;5513;50.580;8.818;2023-05-02T12:38:58;99665.72;;;17.87;100.00
10921;BME280;5513;50.580;8.818;2023-05-02T12:41:31;99662.91;;;17.56;100.00
10921;BME280;5513;50.580;8.818;2023-05-02T12:44:00;99660.47;;;17.32;100.00
10921;BME280;5513;50.580;8.818;2023-05-02T12:46:29;99665.41;;;17.48;100.00
10921;BME280;5513;50.580;8.818;2023-05-02T12:49:03;99670.53;;;17.19;100.00
10921;BME280;5513;50.580;8.818;2023-05-02T12:51:31;99668.44;;;16.91;100.00
10921;BME280;5513;50.580;8.818;2023-05-02T12:54:03;99671.34;;;16.99;100.00
10921;BME280;5513;50.580;8.818;2023-05-02T12:56:38;99682.44;;;16.16;100.00
10921;BME280;5513;50.580;8.818;2023-05-02T12:59:06;99677.97;;;16.16;100.00
10921;BME280;5513;50.580;8.818;2023-05-02T13:01:35;99677.09;;;16.38;100.00
10921;BME280;5513;50.580;8.818;2023-05-02T13:04:03;99683.53;;;16.58;100.00
10921;BME280;5513;50.580;8.818;2023-05-02T13:06:32;99679.88;;;16.48;100.00
10921;BME280;5513;50.580;8.818;2023-05-02T13:09:05;99687.78;;;16.49;100.00
10921;BME280;5513;50.580;8.818;2023-05-02T13:11:33;99688.28;;;16.54;100.00
10921;BME280;5513;50.580;8.818;2023-05-02T13:14:02;99682.81;;;16.45;100.00
10921;BME280;5513;50.580;8.818;2023-05-02T13:16:31;99684.41;;;16.02;100.00
10921;BME280;5513;50.580;8.818;2023-05-02T13:19:02;99688.25;;;15.98;100.00
10921;BME280;5513;50.580;8.818;2023-05-02T13:21:32;99687.53;;;16.19;100.00
10921;BME280;5513;50.580;8.818;2023-05-02T13:24:00;99690.47;;;16.27;100.00
10921;BME280;5513;50.580;8.818;2023-05-02T13:26:31;99692.03;;;16.07;100.00
10921;BME280;5513;50.580;8.818;2023-05-02T13:29:01;99695.75;;;15.82;100.00
10921;BME280;5513;50.580;8.818;2023-05-02T13:31:30;99701.16;;;16.05;100.00
10921;BME280;5513;50.580;8.818;2023-05-02T13:33:59;99706.00;;;16.11;100.00
10921;BME280;5513;50.580;8.818;2023-05-02T13:36:27;99701.16;;;16.05;100.00
10921;BME280;5513;50.580;8.818;2023-05-02T13:38:55;99701.16;;;16.05;100.00
10921;BME280;5513;50.580;8.818;2023-05-02T13:41:24;99707.34;;;16.05;100.00
10921;BME280;5513;50.580;8.818;2023-05-02T13:43:55;99699.84;;;16.21;100.00
10921;BME280;5513;50.580;8.818;2023-05-02T13:46:24;99695.34;;;16.33;100.00
10921;BME280;5513;50.580;8.818;2023-05-02T13:48:52;99701.03;;;16.06;100.00
10921;BME280;5513;50.580;8.818;2023-05-02T13:51:20;99710.59;;;15.97;100.00
10921;BME280;5513;50.580;8.818;2023-05-02T13:53:50;99704.66;;;15.83;99.47
10921;BME280;5513;50.580;8.818;2023-05-02T13:56:18;99707.47;;;16.03;99.12
10921;BME280;5513;50.580;8.818;2023-05-02T13:58:47;99711.53;;;15.74;99.58
10921;BME280;5513;50.580;8.818;2023-05-02T14:01:17;99713.09;;;15.65;99.71
10921;BME280;5513;50.580;8.818;2023-05-02T14:03:46;99716.81;;;15.63;100.00
10921;BME280;5513;50.580;8.818;2023-05-02T14:06:14;99719.50;;;15.63;100.00
10921;BME280;5513;50.580;8.818;2023-05-02T14:08:42;99724.19;;;15.59;100.00
10921;BME280;5513;50.580;8.818;2023-05-02T14:11:11;99721.97;;;15.53;100.00
10921;BME280;5513;50.580;8.818;2023-05-02T14:13:39;99717.69;;;15.39;100.00
10921;BME280;5513;50.580;8.818;2023-05-02T14:16:07;99719.78;;;15.47;100.00
10921;BME280;5513;50.580;8.818;2023-05-02T14:18:43;99725.00;;;15.25;100.00
10921;BME280;5513;50.580;8.818;2023-05-02T14:21:12;99728.53;;;15.01;100.00
10921;BME280;5513;50.580;8.818;2023-05-02T14:23:40;99731.72;;;15.06;100.00
10921;BME280;5513;50.580;8.818;2023-05-02T14:26:08;99731.72;;;15.06;100.00
10921;BME280;5513;50.580;8.818;2023-05-02T14:28:37;99724.41;;;15.45;100.00
10921;BME280;5513;50.580;8.818;2023-05-02T14:31:06;99734.22;;;15.68;100.00
10921;BME280;5513;50.580;8.818;2023-05-02T14:33:34;99733.63;;;16.22;100.00
10921;BME280;5513;50.580;8.818;2023-05-02T14:36:07;99735.19;;;16.14;100.00
10921;BME280;5513;50.580;8.818;2023-05-02T14:38:35;99742.59;;;15.64;100.00
10921;BME280;5513;50.580;8.818;2023-05-02T14:41:04;99745.28;;;15.51;100.00
10921;BME280;5513;50.580;8.818;2023-05-02T14:43:32;99754.25;;;15.50;100.00
10921;BME280;5513;50.580;8.818;2023-05-02T14:46:02;99758.63;;;15.51;100.00
10921;BME280;5513;50.580;8.818;2023-05-02T14:48:30;99756.94;;;15.74;100.00
10921;BME280;5513;50.580;8.818;2023-05-02T14:51:06;99758.13;;;15.70;100.00
10921;BME280;5513;50.580;8.818;2023-05-02T14:53:35;99752.06;;;15.68;100.00
10921;BME280;5513;50.580;8.818;2023-05-02T14:56:11;99764.44;;;15.45;99.26
10921;BME280;5513;50.580;8.818;2023-05-02T14:58:43;99769.75;;;15.21;99.52
10921;BME280;5513;50.580;8.818;2023-05-02T15:01:15;99770.13;;;15.04;100.00
10921;BME280;5513;50.580;8.818;2023-05-02T15:03:44;99773.22;;;15.10;100.00
10921;BME280;5513;50.580;8.818;2023-05-02T15:06:33;99771.19;;;14.77;100.00
10921;BME280;5513;50.580;8.818;2023-05-02T15:09:02;99773.00;;;14.64;100.00
10921;BME280;5513;50.580;8.818;2023-05-02T15:11:31;99778.34;;;14.77;100.00
10921;BME280;5513;50.580;8.818;2023-05-02T15:13:59;99771.38;;;14.74;100.00
10921;BME280;5513;50.580;8.818;2023-05-02T15:16:28;99771.91;;;14.67;100.00
10921;BME280;5513;50.580;8.818;2023-05-02T15:18:56;99787.19;;;14.77;100.00
10921;BME280;5513;50.580;8.818;2023-05-02T15:21:25;99783.22;;;14.83;100.00
10921;BME280;5513;50.580;8.818;2023-05-02T15:23:55;99787.56;;;14.97;100.00
10921;BME280;5513;50.580;8.818;2023-05-02T15:26:26;99789.78;;;15.03;100.00
10921;BME280;5513;50.580;8.818;2023-05-02T15:28:54;99789.06;;;14.88;100.00
10921;BME280;5513;50.580;8.818;2023-05-02T15:31:22;99790.59;;;14.79;100.00
10921;BME280;5513;50.580;8.818;2023-05-02T15:33:50;99791.78;;;14.50;100.00
10921;BME280;5513;50.580;8.818;2023-05-02T15:36:19;99795.63;;;14.58;100.00
10921;BME280;5513;50.580;8.818;2023-05-02T15:38:47;99799.13;;;14.46;100.00
10921;BME280;5513;50.580;8.818;2023-05-02T15:41:17;99799.00;;;14.35;100.00
10921;BME280;5513;50.580;8.818;2023-05-02T15:43:45;99805.31;;;14.47;100.00
10921;BME280;5513;50.580;8.818;2023-05-02T15:46:13;99802.44;;;14.63;100.00
10921;BME280;5513;50.580;8.818;2023-05-02T15:48:42;99800.50;;;14.77;100.00
10921;BME280;5513;50.580;8.818;2023-05-02T15:51:10;99797.72;;;14.66;100.00
10921;BME280;5513;50.580;8.818;2023-05-02T15:53:39;99801.72;;;14.48;100.00
10921;BME280;5513;50.580;8.818;2023-05-02T15:56:10;99808.72;;;14.74;100.00
10921;BME280;5513;50.580;8.818;2023-05-02T15:58:41;99801.13;;;14.43;100.00
10921;BME280;5513;50.580;8.818;2023-05-02T16:01:09;99803.69;;;14.31;100.00
10921;BME280;5513;50.580;8.818;2023-05-02T16:03:38;99813.16;;;14.36;100.00
10921;BME280;5513;50.580;8.818;2023-05-02T16:06:07;99817.13;;;14.30;100.00
10921;BME280;5513;50.580;8.818;2023-05-02T16:08:35;99821.81;;;14.26;100.00
10921;BME280;5513;50.580;8.818;2023-05-02T16:11:04;99822.72;;;14.52;100.00
10921;BME280;5513;50.580;8.818;2023-05-02T16:13:32;99820.84;;;14.15;100.00
10921;BME280;5513;50.580;8.818;2023-05-02T16:16:02;99821.28;;;14.21;100.00
10921;BME280;5513;50.580;8.818;2023-05-02T16:18:30;99832.22;;;14.04;100.00
10921;BME280;5513;50.580;8.818;2023-05-02T16:20:59;99831.50;;;14.27;100.00
10921;BME280;5513;50.580;8.818;2023-05-02T16:23:28;99829.59;;;14.29;100.00
10921;BME280;5513;50.580;8.818;2023-05-02T16:25:57;99821.44;;;13.93;100.00
10921;BME280;5513;50.580;8.818;2023-05-02T16:28:31;99828.50;;;14.07;100.00
10921;BME280;5513;50.580;8.818;2023-05-02T16:31:05;99828.22;;;13.84;100.00
10921;BME280;5513;50.580;8.818;2023-05-02T16:33:37;99839.88;;;14.09;100.00
10921;BME280;5513;50.580;8.818;2023-05-02T16:36:06;99834.09;;;14.29;100.00
10921;BME280;5513;50.580;8.818;2023-05-02T16:38:34;99837.66;;;14.15;100.00
10921;BME280;5513;50.580;8.818;2023-05-02T16:41:04;99832.34;;;14.28;100.00
10921;BME280;5513;50.580;8.818;2023-05-02T16:43:33;99833.84;;;14.19;100.00
10921;BME280;5513;50.580;8.818;2023-05-02T16:46:05;99827.47;;;14.35;100.00
10921;BME280;5513;50.580;8.818;2023-05-02T16:48:36;99842.47;;;14.10;100.00
10921;BME280;5513;50.580;8.818;2023-05-02T16:51:05;99846.09;;;14.09;98.85
10921;BME280;5513;50.580;8.818;2023-05-02T16:53:33;99843.66;;;14.31;99.74
10921;BME280;5513;50.580;8.818;2023-05-02T16:56:01;99838.28;;;14.06;95.95
10921;BME280;5513;50.580;8.818;2023-05-02T16:58:30;99846.78;;;13.98;97.57
10921;BME280;5513;50.580;8.818;2023-05-02T17:00:58;99847.88;;;13.69;97.03
10921;BME280;5513;50.580;8.818;2023-05-02T17:03:28;99848.56;;;13.85;97.45
10921;BME280;5513;50.580;8.818;2023-05-02T17:05:58;99852.09;;;13.59;96.44
10921;BME280;5513;50.580;8.818;2023-05-02T17:08:27;99850.38;;;13.58;95.44
10921;BME280;5513;50.580;8.818;2023-05-02T17:10:56;99868.13;;;13.44;96.00
10921;BME280;5513;50.580;8.818;2023-05-02T17:13:24;99864.25;;;13.22;97.53
10921;BME280;5513;50.580;8.818;2023-05-02T17:15:53;99870.31;;;13.09;98.07
10921;BME280;5513;50.580;8.818;2023-05-02T17:18:21;99858.19;;;13.05;98.63
10921;BME280;5513;50.580;8.818;2023-05-02T17:20:53;99861.09;;;13.01;100.00
10921;BME280;5513;50.580;8.818;2023-05-02T17:23:21;99868.72;;;12.78;100.00
10921;BME280;5513;50.580;8.818;2023-05-02T17:25:50;99872.53;;;12.74;100.00
10921;BME280;5513;50.580;8.818;2023-05-02T17:28:18;99876.63;;;12.94;100.00
10921;BME280;5513;50.580;8.818;2023-05-02T17:30:47;99881.84;;;12.96;100.00
10921;BME280;5513;50.580;8.818;2023-05-02T17:33:20;99877.91;;;12.73;100.00
10921;BME280;5513;50.580;8.818;2023-05-02T17:35:48;99884.84;;;12.61;100.00
10921;BME280;5513;50.580;8.818;2023-05-02T17:38:18;99886.09;;;12.55;100.00
10921;BME280;5513;50.580;8.818;2023-05-02T17:40:47;99883.16;;;12.74;100.00
10921;BME280;5513;50.580;8.818;2023-05-02T17:43:15;99889.03;;;12.79;100.00
10921;BME280;5513;50.580;8.818;2023-05-02T17:45:44;99892.44;;;12.81;100.00
10921;BME280;5513;50.580;8.818;2023-05-02T17:48:12;99895.56;;;12.59;100.00
10921;BME280;5513;50.580;8.818;2023-05-02T17:50:41;99893.66;;;12.61;100.00
10921;BME280;5513;50.580;8.818;2023-05-02T17:53:09;99890.53;;;12.69;100.00
10921;BME280;5513;50.580;8.818;2023-05-02T17:55:39;99897.66;;;12.69;97.65
10921;BME280;5513;50.580;8.818;2023-05-02T17:58:08;99899.31;;;12.85;95.33
10921;BME280;5513;50.580;8.818;2023-05-02T18:00:36;99908.09;;;12.57;95.50
10921;BME280;5513;50.580;8.818;2023-05-02T18:03:05;99902.22;;;12.67;96.66
10921;BME280;5513;50.580;8.818;2023-05-02T18:05:36;99912.41;;;12.74;95.08
10921;BME280;5513;50.580;8.818;2023-05-02T18:08:05;99913.16;;;12.32;95.97
10921;BME280;5513;50.580;8.818;2023-05-02T18:10:40;99917.06;;;12.41;94.60
10921;BME280;5513;50.580;8.818;2023-05-02T18:13:08;99920.69;;;12.10;95.46
10921;BME280;5513;50.580;8.818;2023-05-02T18:15:37;99925.44;;;11.89;97.32
10921;BME280;5513;50.580;8.818;2023-05-02T18:18:05;99923.88;;;11.85;98.32
10921;BME280;5513;50.580;8.818;2023-05-02T18:20:37;99925.53;;;11.87;99.32
10921;BME280;5513;50.580;8.818;2023-05-02T18:23:06;99929.66;;;11.75;100.00
10921;BME280;5513;50.580;8.818;2023-05-02T18:25:34;99936.00;;;11.57;100.00
10921;BME280;5513;50.580;8.818;2023-05-02T18:28:04;99940.41;;;11.58;100.00
10921;BME280;5513;50.580;8.818;2023-05-02T18:30:34;99940.53;;;11.55;100.00
10921;BME280;5513;50.580;8.818;2023-05-02T18:33:04;99947.28;;;11.45;100.00
10921;BME280;5513;50.580;8.818;2023-05-02T18:35:32;99943.25;;;11.22;100.00
10921;BME280;5513;50.580;8.818;2023-05-02T18:38:03;99946.41;;;11.29;100.00
10921;BME280;5513;50.580;8.818;2023-05-02T18:40:32;99944.13;;;11.23;100.00
10921;BME280;5513;50.580;8.818;2023-05-02T18:43:00;99953.09;;;11.36;100.00
10921;BME280;5513;50.580;8.818;2023-05-02T18:45:30;99957.03;;;11.29;100.00
10921;BME280;5513;50.580;8.818;2023-05-02T18:47:59;99958.00;;;11.43;100.00
10921;BME280;5513;50.580;8.818;2023-05-02T18:50:27;99952.28;;;11.02;100.00
10921;BME280;5513;50.580;8.818;2023-05-02T18:52:55;99959.47;;;11.16;100.00
10921;BME280;5513;50.580;8.818;2023-05-02T18:55:24;99963.34;;;11.26;100.00
10921;BME280;5513;50.580;8.818;2023-05-02T18:57:52;99976.97;;;11.20;100.00
10921;BME280;5513;50.580;8.818;2023-05-02T19:00:21;99971.25;;;10.95;100.00
10921;BME280;5513;50.580;8.818;2023-05-02T19:02:52;99973.88;;;10.95;100.00
10921;BME280;5513;50.580;8.818;2023-05-02T19:05:21;99972.66;;;10.84;100.00
10921;BME280;5513;50.580;8.818;2023-05-02T19:07:49;99978.97;;;10.47;100.00
10921;BME280;5513;50.580;8.818;2023-05-02T19:10:18;99974.31;;;10.52;100.00
10921;BME280;5513;50.580;8.818;2023-05-02T19:12:46;99982.56;;;10.46;100.00
10921;BME280;5513;50.580;8.818;2023-05-02T19:15:15;99981.63;;;10.47;100.00
10921;BME280;5513;50.580;8.818;2023-05-02T19:17:43;99991.75;;;10.20;100.00
10921;BME280;5513;50.580;8.818;2023-05-02T19:20:16;99996.63;;;10.29;100.00
10921;BME280;5513;50.580;8.818;2023-05-02T19:22:46;99999.44;;;10.08;100.00
10921;BME280;5513;50.580;8.818;2023-05-02T19:25:14;100004.50;;;10.12;100.00
10921;BME280;5513;50.580;8.818;2023-05-02T19:27:43;100005.69;;;10.07;100.00
10921;BME280;5513;50.580;8.818;2023-05-02T19:30:13;100007.81;;;10.17;100.00
10921;BME280;5513;50.580;8.818;2023-05-02T19:32:41;100009.34;;;10.21;100.00
10921;BME280;5513;50.580;8.818;2023-05-02T19:35:10;100005.94;;;10.19;100.00
10921;BME280;5513;50.580;8.818;2023-05-02T19:37:39;100014.22;;;10.30;100.00
10921;BME280;5513;50.580;8.818;2023-05-02T19:40:10;100007.38;;;10.08;100.00
10921;BME280;5513;50.580;8.818;2023-05-02T19:42:38;100014.13;;;10.15;100.00
10921;BME280;5513;50.580;8.818;2023-05-02T19:45:07;100023.59;;;10.19;100.00
10921;BME280;5513;50.580;8.818;2023-05-02T19:47:39;100019.13;;;10.02;100.00
10921;BME280;5513;50.580;8.818;2023-05-02T19:50:10;100022.56;;;10.04;100.00
10921;BME280;5513;50.580;8.818;2023-05-02T19:52:40;100025.84;;;10.09;100.00
10921;BME280;5513;50.580;8.818;2023-05-02T19:55:10;100025.41;;;9.99;100.00
10921;BME280;5513;50.580;8.818;2023-05-02T19:57:38;100025.13;;;10.06;100.00
10921;BME280;5513;50.580;8.818;2023-05-02T20:00:11;100031.31;;;9.87;100.00
10921;BME280;5513;50.580;8.818;2023-05-02T20:02:41;100029.50;;;9.88;100.00
10921;BME280;5513;50.580;8.818;2023-05-02T20:05:10;100037.38;;;9.89;100.00
10921;BME280;5513;50.580;8.818;2023-05-02T20:07:40;100033.00;;;9.88;100.00
10921;BME280;5513;50.580;8.818;2023-05-02T20:10:10;100037.88;;;9.79;100.00
10921;BME280;5513;50.580;8.818;2023-05-02T20:12:38;100036.09;;;9.79;100.00
10921;BME280;5513;50.580;8.818;2023-05-02T20:15:10;100047.09;;;9.51;100.00
10921;BME280;5513;50.580;8.818;2023-05-02T20:17:39;100039.16;;;9.51;100.00
10921;BME280;5513;50.580;8.818;2023-05-02T20:20:08;100042.22;;;9.61;100.00
10921;BME280;5513;50.580;8.818;2023-05-02T20:22:37;100042.88;;;9.66;100.00
10921;BME280;5513;50.580;8.818;2023-05-02T20:25:10;100041.28;;;9.43;100.00
10921;BME280;5513;50.580;8.818;2023-05-02T20:27:38;100052.75;;;9.23;100.00
10921;BME280;5513;50.580;8.818;2023-05-02T20:30:07;100058.50;;;9.12;100.00
10921;BME280;5513;50.580;8.818;2023-05-02T20:32:36;100054.59;;;9.21;100.00
10921;BME280;5513;50.580;8.818;2023-05-02T20:35:05;100055.78;;;9.14;100.00
10921;BME280;5513;50.580;8.818;2023-05-02T20:37:34;100061.53;;;9.03;100.00
10921;BME280;5513;50.580;8.818;2023-05-02T20:40:03;100067.59;;;9.05;100.00
10921;BME280;5513;50.580;8.818;2023-05-02T20:42:37;100076.06;;;9.13;100.00
10921;BME280;5513;50.580;8.818;2023-05-02T20:45:09;100081.22;;;9.16;100.00
10921;BME280;5513;50.580;8.818;2023-05-02T20:47:41;100080.50;;;9.13;100.00
10921;BME280;5513;50.580;8.818;2023-05-02T20:50:09;100078.47;;;8.99;100.00
10921;BME280;5513;50.580;8.818;2023-05-02T20:52:38;100068.06;;;8.95;100.00
10921;BME280;5513;50.580;8.818;2023-05-02T20:55:07;100075.06;;;8.96;100.00
10921;BME280;5513;50.580;8.818;2023-05-02T20:57:36;100071.84;;;9.09;100.00
10921;BME280;5513;50.580;8.818;2023-05-02T21:00:07;100080.25;;;8.99;100.00
10921;BME280;5513;50.580;8.818;2023-05-02T21:02:37;100083.84;;;8.76;100.00
10921;BME280;5513;50.580;8.818;2023-05-02T21:05:05;100081.50;;;8.90;100.00
10921;BME280;5513;50.580;8.818;2023-05-02T21:07:34;100096.47;;;8.69;100.00
10921;BME280;5513;50.580;8.818;2023-05-02T21:10:06;100092.06;;;8.68;100.00
10921;BME280;5513;50.580;8.818;2023-05-02T21:12:37;100092.72;;;8.53;100.00
10921;BME280;5513;50.580;8.818;2023-05-02T21:15:06;100089.19;;;8.74;100.00
10921;BME280;5513;50.580;8.818;2023-05-02T21:17:38;100088.47;;;8.71;100.00
10921;BME280;5513;50.580;8.818;2023-05-02T21:20:07;100075.47;;;8.86;100.00
10921;BME280;5513;50.580;8.818;2023-05-02T21:22:36;100076.84;;;8.95;100.00
10921;BME280;5513;50.580;8.818;2023-05-02T21:25:05;100075.81;;;8.99;100.00
10921;BME280;5513;50.580;8.818;2023-05-02T21:27:33;100087.03;;;9.04;100.00
10921;BME280;5513;50.580;8.818;2023-05-02T21:30:05;100082.69;;;9.03;100.00
10921;BME280;5513;50.580;8.818;2023-05-02T21:32:34;100087.72;;;9.09;100.00
10921;BME280;5513;50.580;8.818;2023-05-02T21:35:02;100091.75;;;8.98;100.00
10921;BME280;5513;50.580;8.818;2023-05-02T21:37:32;100090.28;;;9.11;100.00
10921;BME280;5513;50.580;8.818;2023-05-02T21:40:00;100101.38;;;8.78;100.00
10921;BME280;5513;50.580;8.818;2023-05-02T21:42:30;100096.72;;;8.83;100.00
10921;BME280;5513;50.580;8.818;2023-05-02T21:44:58;100108.28;;;8.81;100.00
10921;BME280;5513;50.580;8.818;2023-05-02T21:47:28;100116.41;;;8.76;100.00
10921;BME280;5513;50.580;8.818;2023-05-02T21:49:57;100098.28;;;8.67;100.00
10921;BME280;5513;50.580;8.818;2023-05-02T21:52:26;100096.41;;;8.71;100.00
10921;BME280;5513;50.580;8.818;2023-05-02T21:54:54;100091.91;;;8.73;100.00
10921;BME280;5513;50.580;8.818;2023-05-02T21:57:23;100097.94;;;8.54;100.00
10921;BME280;5513;50.580;8.818;2023-05-02T21:59:51;100101.63;;;8.50;100.00
10921;BME280;5513;50.580;8.818;2023-05-02T22:02:19;100102.50;;;8.51;100.00
10921;BME280;5513;50.580;8.818;2023-05-02T22:04:51;100099.66;;;8.55;100.00
10921;BME280;5513;50.580;8.818;2023-05-02T22:07:19;100094.22;;;8.58;100.00
10921;BME280;5513;50.580;8.818;2023-05-02T22:09:48;100110.03;;;8.60;100.00
10921;BME280;5513;50.580;8.818;2023-05-02T22:12:16;100100.94;;;8.45;100.00
10921;BME280;5513;50.580;8.818;2023-05-02T22:14:46;100102.84;;;8.42;100.00
10921;BME280;5513;50.580;8.818;2023-05-02T22:17:14;100100.28;;;8.17;100.00
10921;BME280;5513;50.580;8.818;2023-05-02T22:19:47;100098.88;;;7.85;100.00
10921;BME280;5513;50.580;8.818;2023-05-02T22:22:17;100102.38;;;7.85;100.00
10921;BME280;5513;50.580;8.818;2023-05-02T22:24:46;100101.41;;;7.88;100.00
10921;BME280;5513;50.580;8.818;2023-05-02T22:27:14;100110.22;;;7.87;100.00
10921;BME280;5513;50.580;8.818;2023-05-02T22:29:42;100102.59;;;7.56;100.00
10921;BME280;5513;50.580;8.818;2023-05-02T22:32:10;100102.00;;;7.47;100.00
10921;BME280;5513;50.580;8.818;2023-05-02T22:34:38;100110.38;;;7.59;100.00
10921;BME280;5513;50.580;8.818;2023-05-02T22:37:07;100104.78;;;7.68;100.00
10921;BME280;5513;50.580;8.818;2023-05-02T22:39:37;100107.25;;;7.72;100.00
10921;BME280;5513;50.580;8.818;2023-05-02T22:42:06;100112.72;;;7.91;100.00
10921;BME280;5513;50.580;8.818;2023-05-02T22:44:36;100111.16;;;7.86;100.00
10921;BME280;5513;50.580;8.818;2023-05-02T22:47:19;100111.31;;;7.81;100.00
10921;BME280;5513;50.580;8.818;2023-05-02T22:49:49;100113.34;;;7.74;100.00
10921;BME280;5513;50.580;8.818;2023-05-02T22:52:18;100115.19;;;7.72;100.00
10921;BME280;5513;50.580;8.818;2023-05-02T22:54:49;100114.13;;;7.77;100.00
10921;BME280;5513;50.580;8.818;2023-05-02T22:57:17;100113.06;;;7.82;100.00
10921;BME280;5513;50.580;8.818;2023-05-02T22:59:45;100112.53;;;7.72;100.00
10921;BME280;5513;50.580;8.818;2023-05-02T23:02:15;100110.97;;;7.67;100.00
10921;BME280;5513;50.580;8.818;2023-05-02T23:04:44;100109.84;;;7.74;100.00
10921;BME280;5513;50.580;8.818;2023-05-02T23:07:12;100115.50;;;7.63;100.00
10921;BME280;5513;50.580;8.818;2023-05-02T23:09:41;100125.34;;;7.33;100.00
10921;BME280;5513;50.580;8.818;2023-05-02T23:12:13;100122.38;;;7.42;100.00
10921;BME280;5513;50.580;8.818;2023-05-02T23:14:42;100107.88;;;7.56;100.00
10921;BME280;5513;50.580;8.818;2023-05-02T23:17:11;100113.22;;;7.53;100.00
10921;BME280;5513;50.580;8.818;2023-05-02T23:19:40;100122.88;;;7.54;100.00
10921;BME280;5513;50.580;8.818;2023-05-02T23:22:10;100119.53;;;7.49;100.00
10921;BME280;5513;50.580;8.818;2023-05-02T23:24:38;100115.25;;;7.46;100.00
10921;BME280;5513;50.580;8.818;2023-05-02T23:27:06;100118.63;;;7.50;100.00
10921;BME280;5513;50.580;8.818;2023-05-02T23:29:36;100117.88;;;7.46;100.00
10921;BME280;5513;50.580;8.818;2023-05-02T23:32:04;100113.81;;;7.37;100.00
10921;BME280;5513;50.580;8.818;2023-05-02T23:34:33;100111.16;;;7.37;100.00
10921;BME280;5513;50.580;8.818;2023-05-02T23:37:03;100113.28;;;7.28;100.00
10921;BME280;5513;50.580;8.818;2023-05-02T23:39:32;100124.88;;;7.47;100.00
10921;BME280;5513;50.580;8.818;2023-05-02T23:42:01;100120.13;;;7.32;100.00
10921;BME280;5513;50.580;8.818;2023-05-02T23:44:30;100123.88;;;7.26;100.00
10921;BME280;5513;50.580;8.818;2023-05-02T23:47:00;100121.38;;;7.22;100.00
10921;BME280;5513;50.580;8.818;2023-05-02T23:49:29;100125.50;;;7.04;100.00
10921;BME280;5513;50.580;8.818;2023-05-02T23:51:57;100126.28;;;7.07;100.00
10921;BME280;5513;50.580;8.818;2023-05-02T23:54:26;100123.22;;;6.93;100.00
10921;BME280;5513;50.580;8.818;2023-05-02T23:56:59;100119.97;;;6.86;100.00
10921;BME280;5513;50.580;8.818;2023-05-02T23:59:27;100116.16;;;6.69;100.00
